Time;durP1;ratioP1;P1;durP2;ratioP2;P2;SDS_P1;SDS_P2;PMS_P1;PMS_P2;Temp;Humidity;BMP_temperature;BMP_pressure;BME280_temperature;BME280_humidity;BME280_pressure;Samples;Min_cycle;Max_cycle;Signal;HPM_P1;HPM_P2
2022/10/26 00:01:26;;;;;;;;;;;19.70;60.50;;;;;;5054835;28;19992;-59
2022/10/26 00:03:53;;;;;;;;;;;19.70;60.50;;;;;;5072776;28;19916;-59
2022/10/26 00:06:19;;;;;;;;;;;19.70;60.50;;;;;;5072423;28;20024;-59
2022/10/26 00:08:44;;;;;;;;;;;19.60;60.50;;;;;;5082395;28;19977;-58
2022/10/26 00:11:10;;;;;;;;;;;19.60;60.60;;;;;;5091891;28;19908;-59
2022/10/26 00:13:35;;;;;;;;;;;19.60;60.70;;;;;;5092932;28;19995;-59
2022/10/26 00:16:06;;;;;;;;;;;19.60;60.70;;;;;;5093031;28;19915;-57
2022/10/26 00:18:31;;;;;;;;;;;19.60;60.70;;;;;;5092862;28;19914;-58
2022/10/26 00:21:01;;;;;;;;;;;19.60;61.30;;;;;;5092812;28;19908;-58
2022/10/26 00:23:26;;;;;;;;;;;19.60;60.50;;;;;;5092907;28;20363;-58
2022/10/26 00:25:55;;;;;;;;;;;19.60;60.50;;;;;;5088209;28;19958;-58
2022/10/26 00:28:21;;;;;;;;;;;19.60;60.40;;;;;;5072754;28;19913;-59
2022/10/26 00:30:46;;;;;;;;;;;19.60;60.50;;;;;;5072433;28;19913;-58
2022/10/26 00:33:12;;;;;;;;;;;19.50;60.40;;;;;;5072665;28;20379;-57
2022/10/26 00:35:37;;;;;;;;;;;19.50;60.60;;;;;;5072551;28;19909;-58
2022/10/26 00:38:02;;;;;;;;;;;19.50;60.60;;;;;;5076323;28;19965;-57
2022/10/26 00:40:28;;;;;;;;;;;19.50;60.60;;;;;;5091652;28;19962;-58
2022/10/26 00:42:53;;;;;;;;;;;19.50;60.70;;;;;;5092787;28;19912;-58
2022/10/26 00:45:19;;;;;;;;;;;19.50;60.80;;;;;;5093048;28;19962;-59
2022/10/26 00:47:49;;;;;;;;;;;19.50;60.70;;;;;;5078612;28;19915;-58
2022/10/26 00:50:23;;;;;;;;;;;19.50;60.80;;;;;;5078261;28;19908;-58
2022/10/26 00:52:49;;;;;;;;;;;19.50;60.70;;;;;;5096709;28;19931;-58
2022/10/26 00:55:14;;;;;;;;;;;19.50;60.70;;;;;;5077434;28;19908;-58
2022/10/26 00:57:40;;;;;;;;;;;19.50;60.60;;;;;;5078455;28;19908;-58
2022/10/26 01:00:05;;;;;;;;;;;19.50;60.60;;;;;;5078080;28;19912;-58
2022/10/26 01:02:31;;;;;;;;;;;19.50;60.70;;;;;;5078512;28;19957;-58
2022/10/26 01:04:56;;;;;;;;;;;19.50;60.70;;;;;;5096178;28;19915;-59
2022/10/26 01:07:22;;;;;;;;;;;19.50;60.60;;;;;;5096358;28;20295;-59
2022/10/26 01:09:47;;;;;;;;;;;19.50;60.50;;;;;;5077391;28;19951;-59
2022/10/26 01:12:13;;;;;;;;;;;19.40;60.50;;;;;;5096253;28;19965;-58
2022/10/26 01:14:38;;;;;;;;;;;19.40;60.60;;;;;;5095973;28;19908;-59
2022/10/26 01:17:22;;;;;;;;;;;19.50;60.70;;;;;;5078391;28;19915;-59
2022/10/26 01:19:56;;;;;;;;;;;19.50;60.60;;;;;;5075626;28;20307;-58
2022/10/26 01:22:33;;;;;;;;;;;19.50;60.30;;;;;;5058269;28;20003;-58
2022/10/26 01:25:10;;;;;;;;;;;19.50;60.30;;;;;;5074881;28;20330;-58
2022/10/26 01:27:39;;;;;;;;;;;19.50;60.30;;;;;;5075745;28;20371;-58
2022/10/26 01:30:17;;;;;;;;;;;19.50;60.10;;;;;;5057722;28;20355;-59
2022/10/26 01:32:45;;;;;;;;;;;19.50;60.30;;;;;;5075890;28;20011;-59
2022/10/26 01:35:10;;;;;;;;;;;19.50;60.40;;;;;;5075335;28;19962;-58
2022/10/26 01:37:36;;;;;;;;;;;19.50;60.50;;;;;;5075662;28;19909;-59
2022/10/26 01:40:05;;;;;;;;;;;19.50;60.50;;;;;;5076676;28;19918;-59
2022/10/26 01:42:30;;;;;;;;;;;19.40;60.40;;;;;;5077596;28;19915;-59
2022/10/26 01:44:57;;;;;;;;;;;19.40;60.40;;;;;;5095486;28;20312;-59
2022/10/26 01:47:22;;;;;;;;;;;19.50;60.40;;;;;;5088424;28;20364;-59
2022/10/26 01:49:51;;;;;;;;;;;19.50;60.40;;;;;;5057463;28;19916;-59
2022/10/26 01:52:17;;;;;;;;;;;19.50;60.40;;;;;;5057373;28;20007;-59
2022/10/26 01:54:42;;;;;;;;;;;19.50;60.30;;;;;;5074270;28;19974;-59
2022/10/26 01:57:08;;;;;;;;;;;19.50;60.20;;;;;;5074604;28;19946;-58
2022/10/26 01:59:34;;;;;;;;;;;19.50;60.20;;;;;;5075221;28;19916;-59
2022/10/26 02:02:02;;;;;;;;;;;19.50;60.20;;;;;;5075205;28;19908;-58
2022/10/26 02:04:27;;;;;;;;;;;19.50;60.30;;;;;;5074928;28;19914;-58
2022/10/26 02:07:08;;;;;;;;;;;19.50;60.30;;;;;;5074776;28;19924;-59
2022/10/26 02:09:38;;;;;;;;;;;19.50;60.30;;;;;;5091039;28;19920;-58
2022/10/26 02:12:05;;;;;;;;;;;19.40;60.30;;;;;;5095103;28;19912;-58
2022/10/26 02:14:34;;;;;;;;;;;19.40;60.30;;;;;;5076859;28;19908;-58
2022/10/26 02:17:25;;;;;;;;;;;19.50;60.30;;;;;;5094957;28;19954;-59
2022/10/26 02:19:59;;;;;;;;;;;19.40;60.20;;;;;;5091526;28;20314;-58
2022/10/26 02:22:25;;;;;;;;;;;19.50;60.20;;;;;;5076775;28;19912;-59
2022/10/26 02:24:51;;;;;;;;;;;19.50;60.10;;;;;;5075860;28;19908;-58
2022/10/26 02:27:19;;;;;;;;;;;19.50;60.10;;;;;;5061506;28;19969;-58
2022/10/26 02:29:44;;;;;;;;;;;19.50;60.10;;;;;;5056525;28;19920;-58
2022/10/26 02:32:10;;;;;;;;;;;19.50;60.00;;;;;;5056611;28;20364;-59
2022/10/26 02:34:35;;;;;;;;;;;19.50;59.90;;;;;;5056482;28;20260;-58
2022/10/26 02:37:00;;;;;;;;;;;19.50;59.90;;;;;;5056409;28;20328;-58
2022/10/26 02:39:26;;;;;;;;;;;19.50;59.80;;;;;;5089313;28;20310;-58
2022/10/26 02:41:52;;;;;;;;;;;19.50;59.80;;;;;;5094134;28;20295;-59
2022/10/26 02:44:20;;;;;;;;;;;19.50;59.90;;;;;;5076231;28;19908;-59
2022/10/26 02:46:45;;;;;;;;;;;19.50;59.70;;;;;;5094403;28;19915;-59
2022/10/26 02:49:11;;;;;;;;;;;19.50;59.70;;;;;;5094221;28;20291;-59
2022/10/26 02:51:44;;;;;;;;;;;19.50;59.70;;;;;;5076131;28;19908;-58
2022/10/26 02:54:14;;;;;;;;;;;19.50;59.70;;;;;;5076168;28;19958;-58
2022/10/26 02:56:41;;;;;;;;;;;19.50;59.70;;;;;;5075854;28;19908;-59
2022/10/26 02:59:07;;;;;;;;;;;19.50;59.70;;;;;;5076055;28;19916;-58
2022/10/26 03:01:32;;;;;;;;;;;19.50;59.70;;;;;;5075851;28;19922;-59
2022/10/26 03:03:58;;;;;;;;;;;19.50;59.70;;;;;;5093966;28;19916;-58
2022/10/26 03:06:23;;;;;;;;;;;19.50;59.70;;;;;;5075822;28;19924;-59
2022/10/26 03:08:49;;;;;;;;;;;19.50;59.80;;;;;;5093159;28;19908;-58
2022/10/26 03:11:14;;;;;;;;;;;19.50;59.80;;;;;;5093096;28;19965;-59
2022/10/26 03:13:40;;;;;;;;;;;19.50;59.70;;;;;;5093857;28;20003;-59
2022/10/26 03:16:05;;;;;;;;;;;19.50;59.70;;;;;;5081692;28;20364;-59
2022/10/26 03:18:31;;;;;;;;;;;19.50;60.40;;;;;;5073526;28;19909;-58
2022/10/26 03:20:56;;;;;;;;;;;19.50;59.70;;;;;;5073335;28;19952;-59
2022/10/26 03:23:22;;;;;;;;;;;19.50;59.70;;;;;;5073504;28;19915;-59
2022/10/26 03:25:47;;;;;;;;;;;19.50;59.60;;;;;;5072439;28;19908;-59
2022/10/26 03:28:13;;;;;;;;;;;19.50;59.70;;;;;;5073320;28;19909;-59
2022/10/26 03:30:38;;;;;;;;;;;19.50;59.70;;;;;;5073143;28;19916;-59
2022/10/26 03:33:04;;;;;;;;;;;19.40;59.60;;;;;;5073334;28;19912;-59
2022/10/26 03:35:29;;;;;;;;;;;19.40;59.70;;;;;;5072971;28;20462;-59
2022/10/26 03:37:55;;;;;;;;;;;19.40;59.80;;;;;;5075908;28;20368;-58
2022/10/26 03:40:20;;;;;;;;;;;19.40;59.80;;;;;;5092236;28;20367;-59
2022/10/26 03:42:45;;;;;;;;;;;19.40;59.80;;;;;;5093424;28;20360;-59
2022/10/26 03:45:11;;;;;;;;;;;19.40;59.80;;;;;;5093037;28;20378;-59
2022/10/26 03:47:45;;;;;;;;;;;19.30;59.90;;;;;;5083735;28;19995;-58
2022/10/26 03:50:11;;;;;;;;;;;19.30;59.90;;;;;;5054924;28;19916;-59
2022/10/26 03:52:37;;;;;;;;;;;19.30;59.90;;;;;;5072881;28;20283;-59
2022/10/26 03:55:02;;;;;;;;;;;19.30;59.90;;;;;;5072200;28;20000;-58
2022/10/26 03:57:28;;;;;;;;;;;19.30;59.90;;;;;;5073210;28;19924;-59
2022/10/26 03:59:53;;;;;;;;;;;19.30;59.90;;;;;;5054605;28;20382;-59
2022/10/26 04:02:18;;;;;;;;;;;19.30;59.80;;;;;;5072844;28;20280;-59
2022/10/26 04:04:44;;;;;;;;;;;19.30;59.80;;;;;;5072533;28;19931;-59
2022/10/26 04:07:09;;;;;;;;;;;19.30;59.80;;;;;;5072667;28;19985;-59
2022/10/26 04:09:35;;;;;;;;;;;19.40;59.90;;;;;;5071182;28;20073;-59
2022/10/26 04:12:00;;;;;;;;;;;19.30;59.80;;;;;;5092498;28;19908;-58
2022/10/26 04:14:26;;;;;;;;;;;19.30;59.80;;;;;;5092833;28;19951;-59
2022/10/26 04:16:51;;;;;;;;;;;19.30;59.80;;;;;;5092784;28;19916;-59
2022/10/26 04:19:16;;;;;;;;;;;19.30;59.70;;;;;;5092248;28;19911;-59
2022/10/26 04:21:42;;;;;;;;;;;19.30;59.60;;;;;;5092721;28;20385;-59
2022/10/26 04:24:08;;;;;;;;;;;19.30;59.60;;;;;;5092877;28;19969;-59
2022/10/26 04:26:34;;;;;;;;;;;19.30;59.70;;;;;;5064359;28;19955;-59
2022/10/26 04:28:59;;;;;;;;;;;19.40;59.70;;;;;;5072568;28;19955;-58
2022/10/26 04:31:25;;;;;;;;;;;19.40;59.60;;;;;;5072254;28;19909;-58
2022/10/26 04:33:50;;;;;;;;;;;19.40;59.70;;;;;;5072679;28;19962;-59
2022/10/26 04:36:16;;;;;;;;;;;19.30;59.60;;;;;;5054329;28;19908;-59
2022/10/26 04:38:41;;;;;;;;;;;19.30;59.70;;;;;;5081594;28;19950;-59
2022/10/26 04:41:06;;;;;;;;;;;19.30;59.70;;;;;;5091701;28;19909;-59
2022/10/26 04:43:32;;;;;;;;;;;19.30;59.70;;;;;;5092563;28;20002;-59
2022/10/26 04:45:57;;;;;;;;;;;19.30;59.70;;;;;;5092352;28;19908;-59
2022/10/26 04:48:23;;;;;;;;;;;19.30;59.60;;;;;;5092635;28;19914;-59
2022/10/26 04:50:48;;;;;;;;;;;19.30;59.60;;;;;;5092301;28;19908;-59
2022/10/26 04:53:14;;;;;;;;;;;19.30;59.60;;;;;;5092470;28;19973;-59
2022/10/26 04:55:39;;;;;;;;;;;19.30;59.60;;;;;;5091569;28;19958;-58
2022/10/26 04:58:05;;;;;;;;;;;19.30;59.50;;;;;;5092423;28;19917;-59
2022/10/26 05:00:31;;;;;;;;;;;19.40;59.50;;;;;;5092242;28;19912;-59
2022/10/26 05:03:00;;;;;;;;;;;19.40;59.50;;;;;;5074634;28;19964;-58
2022/10/26 05:05:26;;;;;;;;;;;19.40;59.50;;;;;;5092373;28;20280;-58
2022/10/26 05:07:54;;;;;;;;;;;19.40;59.40;;;;;;5092370;28;19920;-59
2022/10/26 05:10:20;;;;;;;;;;;19.40;59.40;;;;;;5091592;28;20009;-58
2022/10/26 05:12:52;;;;;;;;;;;19.40;59.40;;;;;;5092471;28;19912;-59
2022/10/26 05:15:17;;;;;;;;;;;19.40;59.40;;;;;;5070127;28;19915;-58
2022/10/26 05:17:43;;;;;;;;;;;19.40;59.30;;;;;;5072048;28;19913;-59
2022/10/26 05:20:12;;;;;;;;;;;19.40;59.20;;;;;;5071638;28;19912;-59
2022/10/26 05:22:37;;;;;;;;;;;19.40;59.20;;;;;;5072406;28;19946;-59
2022/10/26 05:25:03;;;;;;;;;;;19.30;59.30;;;;;;5071118;28;19909;-59
2022/10/26 05:27:28;;;;;;;;;;;19.30;59.40;;;;;;5071971;28;19908;-59
2022/10/26 05:29:54;;;;;;;;;;;19.30;59.50;;;;;;5071731;28;20013;-59
2022/10/26 05:32:19;;;;;;;;;;;19.30;59.50;;;;;;5073984;28;19915;-59
2022/10/26 05:34:45;;;;;;;;;;;19.30;59.50;;;;;;5075346;28;19958;-59
2022/10/26 05:37:10;;;;;;;;;;;19.30;59.50;;;;;;5075489;28;20118;-58
2022/10/26 05:39:36;;;;;;;;;;;19.30;59.60;;;;;;5091608;28;19920;-59
2022/10/26 05:42:01;;;;;;;;;;;19.20;59.50;;;;;;5095576;28;20344;-58
2022/10/26 05:44:26;;;;;;;;;;;19.20;59.50;;;;;;5095607;28;20003;-59
2022/10/26 05:46:52;;;;;;;;;;;19.20;59.50;;;;;;5092206;28;19915;-59
2022/10/26 05:49:17;;;;;;;;;;;19.20;59.60;;;;;;5075105;28;20364;-59
2022/10/26 05:51:43;;;;;;;;;;;19.20;59.60;;;;;;5075017;28;20368;-59
2022/10/26 05:54:08;;;;;;;;;;;19.20;59.60;;;;;;5075201;28;20249;-59
2022/10/26 05:56:37;;;;;;;;;;;19.20;60.30;;;;;;5073805;28;19948;-59
2022/10/26 05:59:03;;;;;;;;;;;19.20;59.60;;;;;;5075225;28;20405;-58
2022/10/26 06:01:48;;;;;;;;;;;19.20;59.50;;;;;;5056924;28;19908;-59
2022/10/26 06:04:20;;;;;;;;;;;19.20;59.50;;;;;;5074889;28;19908;-59
2022/10/26 06:06:46;;;;;;;;;;;19.20;59.40;;;;;;5056805;28;19996;-58
2022/10/26 06:09:11;;;;;;;;;;;19.20;59.50;;;;;;5070501;28;19951;-59
2022/10/26 06:11:37;;;;;;;;;;;19.30;59.50;;;;;;5076038;28;19915;-59
2022/10/26 06:14:02;;;;;;;;;;;19.20;59.40;;;;;;5095329;28;20018;-57
2022/10/26 06:16:34;;;;;;;;;;;19.30;59.40;;;;;;5094799;28;20368;-58
2022/10/26 06:19:09;;;;;;;;;;;19.30;59.40;;;;;;5076758;28;19912;-59
2022/10/26 06:21:48;;;;;;;;;;;19.30;59.40;;;;;;5094952;28;19909;-59
2022/10/26 06:24:14;;;;;;;;;;;19.30;59.40;;;;;;5076465;28;19919;-59
2022/10/26 06:26:42;;;;;;;;;;;19.30;60.00;;;;;;5094434;28;19908;-59
2022/10/26 06:29:16;;;;;;;;;;;19.30;59.40;;;;;;5095020;28;20249;-59
2022/10/26 06:31:42;;;;;;;;;;;19.30;59.40;;;;;;5094605;28;20009;-59
2022/10/26 06:34:08;;;;;;;;;;;19.30;59.40;;;;;;5076866;28;20374;-59
2022/10/26 06:36:33;;;;;;;;;;;19.20;59.30;;;;;;5069857;28;19912;-59
2022/10/26 06:39:00;;;;;;;;;;;19.30;59.30;;;;;;5085917;28;20356;-59
2022/10/26 06:41:25;;;;;;;;;;;19.30;59.30;;;;;;5075307;28;19908;-59
2022/10/26 06:43:52;;;;;;;;;;;19.30;59.20;;;;;;5076320;28;20001;-58
2022/10/26 06:46:30;;;;;;;;;;;19.30;59.20;;;;;;5094153;28;20283;-59
2022/10/26 06:48:56;;;;;;;;;;;19.30;59.20;;;;;;5094247;28;19908;-58
2022/10/26 06:51:21;;;;;;;;;;;19.20;59.20;;;;;;5093980;28;19916;-58
2022/10/26 06:53:58;;;;;;;;;;;19.20;59.30;;;;;;5076132;28;19908;-59
2022/10/26 06:56:23;;;;;;;;;;;19.20;59.20;;;;;;5075186;28;20398;-58
2022/10/26 06:58:49;;;;;;;;;;;19.30;59.20;;;;;;5094096;28;19908;-57
2022/10/26 07:01:15;;;;;;;;;;;19.20;59.20;;;;;;5093862;28;19909;-59
2022/10/26 07:03:40;;;;;;;;;;;19.20;59.30;;;;;;5093993;28;20380;-59
2022/10/26 07:06:06;;;;;;;;;;;19.20;59.30;;;;;;5093633;28;20322;-59
2022/10/26 07:08:31;;;;;;;;;;;19.20;59.30;;;;;;5094113;28;19916;-59
2022/10/26 07:10:56;;;;;;;;;;;19.20;59.30;;;;;;5092915;28;20343;-59
2022/10/26 07:13:22;;;;;;;;;;;19.20;59.30;;;;;;5092651;28;19908;-59
2022/10/26 07:15:47;;;;;;;;;;;19.20;59.30;;;;;;5085690;28;19909;-59
2022/10/26 07:18:13;;;;;;;;;;;19.20;59.40;;;;;;5073555;28;19947;-59
2022/10/26 07:20:39;;;;;;;;;;;19.20;59.30;;;;;;5073242;28;20397;-58
2022/10/26 07:23:11;;;;;;;;;;;19.20;59.30;;;;;;5073448;28;19966;-59
2022/10/26 07:25:39;;;;;;;;;;;19.20;59.30;;;;;;5055506;28;20372;-59
2022/10/26 07:28:05;;;;;;;;;;;19.20;59.30;;;;;;5055786;28;19958;-59
2022/10/26 07:30:30;;;;;;;;;;;19.20;59.90;;;;;;5073169;28;20387;-58
2022/10/26 07:32:59;;;;;;;;;;;19.20;59.30;;;;;;5073241;28;19909;-59
2022/10/26 07:35:25;;;;;;;;;;;19.20;59.40;;;;;;5072943;28;20322;-59
2022/10/26 07:37:50;;;;;;;;;;;19.20;59.30;;;;;;5075445;28;20003;-58
2022/10/26 07:40:16;;;;;;;;;;;19.20;59.40;;;;;;5074072;28;19919;-59
2022/10/26 07:42:41;;;;;;;;;;;19.10;59.40;;;;;;5093349;28;19915;-59
2022/10/26 07:45:07;;;;;;;;;;;19.10;59.40;;;;;;5093093;28;20355;-59
2022/10/26 07:47:32;;;;;;;;;;;19.10;59.40;;;;;;5093304;28;20335;-59
2022/10/26 07:49:58;;;;;;;;;;;19.20;59.40;;;;;;5093074;28;19908;-58
2022/10/26 07:52:24;;;;;;;;;;;19.10;59.40;;;;;;5093274;28;19923;-59
2022/10/26 07:54:49;;;;;;;;;;;19.10;59.40;;;;;;5091733;28;19943;-59
2022/10/26 07:57:15;;;;;;;;;;;19.10;59.40;;;;;;5093214;28;19908;-59
2022/10/26 07:59:41;;;;;;;;;;;19.10;59.40;;;;;;5092959;28;19912;-59
2022/10/26 08:02:07;;;;;;;;;;;19.10;59.50;;;;;;5093072;28;20507;-59
2022/10/26 08:04:32;;;;;;;;;;;19.10;59.50;;;;;;5073659;28;19917;-59
2022/10/26 08:06:58;;;;;;;;;;;19.10;59.40;;;;;;5072553;28;19921;-59
2022/10/26 08:09:23;;;;;;;;;;;19.10;59.40;;;;;;5087266;28;20399;-59
2022/10/26 08:11:49;;;;;;;;;;;19.10;59.40;;;;;;5092452;28;20355;-59
2022/10/26 08:14:14;;;;;;;;;;;19.20;59.40;;;;;;5092803;28;20400;-59
2022/10/26 08:16:40;;;;;;;;;;;19.20;59.40;;;;;;5074705;28;19915;-59
2022/10/26 08:19:06;;;;;;;;;;;19.20;59.30;;;;;;5092897;28;19912;-59
2022/10/26 08:21:31;;;;;;;;;;;19.20;59.30;;;;;;5074689;28;20030;-59
2022/10/26 08:23:57;;;;;;;;;;;19.30;59.30;;;;;;5092728;28;19908;-60
2022/10/26 08:26:22;;;;;;;;;;;19.20;59.20;;;;;;5091659;28;19916;-60
2022/10/26 08:28:48;;;;;;;;;;;19.20;59.30;;;;;;5092698;28;19909;-59
2022/10/26 08:31:13;;;;;;;;;;;19.20;59.10;;;;;;5092550;28;19948;-60
2022/10/26 08:33:39;;;;;;;;;;;19.30;59.30;;;;;;5092786;28;19915;-59
2022/10/26 08:36:04;;;;;;;;;;;19.30;59.20;;;;;;5090164;28;19958;-59
2022/10/26 08:38:32;;;;;;;;;;;19.30;59.20;;;;;;5062203;28;19908;-59
2022/10/26 08:40:58;;;;;;;;;;;19.30;59.20;;;;;;5091647;28;19912;-59
2022/10/26 08:43:26;;;;;;;;;;;19.30;59.10;;;;;;5074528;28;20382;-59
2022/10/26 08:45:59;;;;;;;;;;;19.30;59.00;;;;;;5092503;28;19908;-60
2022/10/26 08:48:31;;;;;;;;;;;19.30;59.10;;;;;;5074311;28;19912;-58
2022/10/26 08:51:16;;;;;;;;;;;19.30;59.10;;;;;;5074255;28;19908;-60
2022/10/26 08:53:42;;;;;;;;;;;19.30;59.10;;;;;;5091780;28;19993;-59
2022/10/26 08:56:10;;;;;;;;;;;19.30;59.10;;;;;;5073270;28;19908;-59
2022/10/26 08:58:37;;;;;;;;;;;19.30;59.10;;;;;;5074289;28;19912;-59
2022/10/26 09:01:04;;;;;;;;;;;19.30;59.20;;;;;;5092061;28;19966;-60
2022/10/26 09:03:29;;;;;;;;;;;19.30;59.20;;;;;;5092270;28;19909;-59
2022/10/26 09:05:57;;;;;;;;;;;19.30;59.10;;;;;;5091970;28;20367;-59
2022/10/26 09:08:36;;;;;;;;;;;19.30;59.00;;;;;;5096182;28;19916;-59
2022/10/26 09:11:05;;;;;;;;;;;19.30;59.00;;;;;;5095154;28;19915;-60
2022/10/26 09:13:41;;;;;;;;;;;19.40;59.00;;;;;;5077972;28;19943;-60
2022/10/26 09:16:13;;;;;;;;;;;19.40;58.90;;;;;;5096266;28;19908;-59
2022/10/26 09:18:46;;;;;;;;;;;19.40;58.90;;;;;;5078207;28;19955;-59
2022/10/26 09:21:15;;;;;;;;;;;19.40;58.90;;;;;;5077962;28;19912;-59
2022/10/26 09:23:54;;;;;;;;;;;19.40;59.00;;;;;;5095898;28;20326;-59
2022/10/26 09:26:25;;;;;;;;;;;19.40;59.10;;;;;;5066711;28;19909;-59
2022/10/26 09:28:50;;;;;;;;;;;19.30;59.10;;;;;;5041062;28;20011;-59
2022/10/26 09:31:16;;;;;;;;;;;19.30;59.20;;;;;;5057507;28;20003;-60
2022/10/26 09:33:41;;;;;;;;;;;19.30;59.20;;;;;;5074202;28;19912;-60
2022/10/26 09:36:16;;;;;;;;;;;19.30;59.30;;;;;;5075115;28;19961;-60
2022/10/26 09:38:41;;;;;;;;;;;19.30;59.30;;;;;;5085025;28;20403;-60
2022/10/26 09:41:07;;;;;;;;;;;19.30;59.30;;;;;;5094380;28;20038;-59
2022/10/26 09:43:32;;;;;;;;;;;19.30;59.50;;;;;;5095601;28;20021;-60
2022/10/26 09:45:58;;;;;;;;;;;19.30;59.50;;;;;;5095353;28;19912;-59
2022/10/26 09:48:35;;;;;;;;;;;19.20;59.60;;;;;;5095477;28;19915;-60
2022/10/26 09:51:00;;;;;;;;;;;19.20;59.70;;;;;;5077213;28;20318;-60
2022/10/26 09:53:26;;;;;;;;;;;19.20;59.70;;;;;;5095401;28;20011;-59
2022/10/26 09:55:54;;;;;;;;;;;19.20;59.70;;;;;;5094461;28;20363;-60
2022/10/26 09:58:21;;;;;;;;;;;19.20;59.70;;;;;;5077308;28;19916;-59
2022/10/26 10:00:46;;;;;;;;;;;19.20;59.80;;;;;;5076929;28;19912;-60
2022/10/26 10:03:18;;;;;;;;;;;19.20;59.90;;;;;;5095266;28;20401;-59
2022/10/26 10:05:44;;;;;;;;;;;19.20;59.90;;;;;;5083630;28;20372;-60
2022/10/26 10:08:09;;;;;;;;;;;19.20;60.00;;;;;;5079817;28;19970;-59
2022/10/26 10:10:35;;;;;;;;;;;19.20;60.00;;;;;;5094285;28;19914;-60
2022/10/26 10:13:00;;;;;;;;;;;19.20;60.00;;;;;;5076826;28;19908;-59
2022/10/26 10:15:26;;;;;;;;;;;19.20;60.00;;;;;;5076572;28;20006;-60
2022/10/26 10:17:52;;;;;;;;;;;19.20;60.00;;;;;;5094461;28;19915;-60
2022/10/26 10:20:26;;;;;;;;;;;19.20;60.00;;;;;;5094696;28;19912;-59
2022/10/26 10:22:56;;;;;;;;;;;19.20;60.00;;;;;;5076944;28;19908;-60
2022/10/26 10:25:22;;;;;;;;;;;19.30;60.20;;;;;;5075791;28;20315;-60
2022/10/26 10:27:53;;;;;;;;;;;19.30;60.00;;;;;;5094774;28;20371;-59
2022/10/26 10:30:20;;;;;;;;;;;19.30;60.00;;;;;;5094455;28;19908;-60
2022/10/26 10:32:46;;;;;;;;;;;19.30;60.10;;;;;;5094689;28;19908;-60
2022/10/26 10:35:21;;;;;;;;;;;19.30;60.10;;;;;;5076111;28;19918;-59
2022/10/26 10:37:46;;;;;;;;;;;19.30;60.10;;;;;;5079443;28;19999;-60
2022/10/26 10:40:19;;;;;;;;;;;19.30;60.10;;;;;;5075251;28;20012;-59
2022/10/26 10:42:44;;;;;;;;;;;19.30;60.20;;;;;;5076554;28;19912;-59
2022/10/26 10:45:26;;;;;;;;;;;19.30;60.30;;;;;;5094047;28;19915;-59
2022/10/26 10:48:02;;;;;;;;;;;19.30;60.20;;;;;;5076342;28;20432;-59
2022/10/26 10:50:27;;;;;;;;;;;19.20;60.20;;;;;;5076287;28;19916;-60
2022/10/26 10:52:53;;;;;;;;;;;19.20;60.20;;;;;;5094285;28;19908;-60
2022/10/26 10:55:19;;;;;;;;;;;19.30;60.30;;;;;;5075010;28;19908;-60
2022/10/26 10:57:51;;;;;;;;;;;19.30;60.30;;;;;;5059460;28;20011;-60
2022/10/26 11:00:17;;;;;;;;;;;19.30;60.30;;;;;;5075777;28;19912;-60
2022/10/26 11:03:01;;;;;;;;;;;19.30;60.30;;;;;;5076080;28;19908;-60
2022/10/26 11:05:41;;;;;;;;;;;19.30;60.30;;;;;;5094055;28;19942;-60
2022/10/26 11:08:11;;;;;;;;;;;19.30;60.50;;;;;;5093995;28;19931;-60
2022/10/26 11:10:38;;;;;;;;;;;19.30;60.30;;;;;;5092994;28;19920;-60
2022/10/26 11:13:11;;;;;;;;;;;19.30;60.40;;;;;;5075838;28;19953;-59
2022/10/26 11:15:37;;;;;;;;;;;19.30;60.30;;;;;;5093693;28;20289;-60
2022/10/26 11:18:18;;;;;;;;;;;19.30;60.40;;;;;;5075846;28;19908;-60
2022/10/26 11:20:46;;;;;;;;;;;19.30;60.40;;;;;;5075584;28;19912;-60
2022/10/26 11:23:17;;;;;;;;;;;19.30;60.30;;;;;;5075521;28;19908;-60
2022/10/26 11:25:48;;;;;;;;;;;19.30;60.40;;;;;;5089109;28;19920;-60
2022/10/26 11:28:13;;;;;;;;;;;19.30;60.50;;;;;;5055921;28;20293;-60
2022/10/26 11:30:42;;;;;;;;;;;19.30;60.50;;;;;;5072382;28;19908;-60
2022/10/26 11:33:14;;;;;;;;;;;19.30;60.50;;;;;;5055819;28;20372;-60
2022/10/26 11:35:47;;;;;;;;;;;19.30;60.50;;;;;;5055064;28;19909;-60
2022/10/26 11:38:16;;;;;;;;;;;19.30;60.60;;;;;;5078477;28;20290;-59
2022/10/26 11:40:52;;;;;;;;;;;19.30;60.60;;;;;;5092427;28;19912;-59
2022/10/26 11:43:21;;;;;;;;;;;19.30;60.70;;;;;;5093596;28;19975;-59
2022/10/26 11:45:55;;;;;;;;;;;19.40;60.70;;;;;;5074915;28;19908;-58
2022/10/26 11:48:22;;;;;;;;;;;19.40;60.60;;;;;;5075139;28;20264;-59
2022/10/26 11:50:49;;;;;;;;;;;19.50;60.70;;;;;;5058195;28;19909;-58
2022/10/26 11:53:18;;;;;;;;;;;19.50;60.50;;;;;;5075005;28;19912;-59
2022/10/26 11:55:48;;;;;;;;;;;19.50;60.60;;;;;;5074361;28;19915;-58
2022/10/26 11:58:13;;;;;;;;;;;19.50;60.60;;;;;;5074955;28;20325;-58
2022/10/26 12:00:42;;;;;;;;;;;19.50;60.50;;;;;;5092613;28;20002;-59
2022/10/26 12:03:09;;;;;;;;;;;19.50;60.40;;;;;;5074686;28;19908;-59
2022/10/26 12:05:34;;;;;;;;;;;19.60;60.60;;;;;;5071399;28;19909;-59
2022/10/26 12:08:02;;;;;;;;;;;19.60;60.60;;;;;;5075997;28;19927;-59
2022/10/26 12:10:34;;;;;;;;;;;19.70;60.60;;;;;;5073890;28;20371;-59
2022/10/26 12:13:01;;;;;;;;;;;19.60;60.50;;;;;;5074835;28;19914;-59
2022/10/26 12:15:32;;;;;;;;;;;19.60;60.40;;;;;;5092572;28;19991;-59
2022/10/26 12:18:01;;;;;;;;;;;19.70;60.60;;;;;;5074897;28;19909;-59
2022/10/26 12:20:44;;;;;;;;;;;19.70;60.60;;;;;;5074587;28;19912;-59
2022/10/26 12:23:10;;;;;;;;;;;19.70;60.40;;;;;;5093076;28;19909;-59
2022/10/26 12:25:35;;;;;;;;;;;19.70;60.50;;;;;;5073848;28;20282;-59
2022/10/26 12:28:01;;;;;;;;;;;19.70;60.60;;;;;;5092836;28;20334;-59
2022/10/26 12:30:30;;;;;;;;;;;19.70;60.70;;;;;;5092534;28;20275;-59
2022/10/26 12:32:56;;;;;;;;;;;19.70;60.70;;;;;;5092791;28;19958;-59
2022/10/26 12:35:34;;;;;;;;;;;19.70;60.70;;;;;;5074307;28;20007;-59
2022/10/26 12:38:00;;;;;;;;;;;19.70;60.70;;;;;;5092689;28;19953;-59
2022/10/26 12:40:31;;;;;;;;;;;19.70;60.80;;;;;;5074183;28;20359;-59
2022/10/26 12:42:57;;;;;;;;;;;19.70;60.80;;;;;;5078555;28;19961;-59
2022/10/26 12:45:23;;;;;;;;;;;19.70;60.80;;;;;;5078147;28;19916;-59
2022/10/26 12:47:49;;;;;;;;;;;19.70;60.90;;;;;;5096835;28;20363;-59
2022/10/26 12:50:14;;;;;;;;;;;19.70;60.90;;;;;;5096490;28;19957;-59
2022/10/26 12:52:41;;;;;;;;;;;19.70;61.00;;;;;;5096718;28;20146;-59
2022/10/26 12:55:18;;;;;;;;;;;19.70;60.90;;;;;;5084667;28;19916;-59
2022/10/26 12:57:43;;;;;;;;;;;19.70;61.10;;;;;;5076415;28;20295;-59
2022/10/26 13:00:12;;;;;;;;;;;19.70;61.30;;;;;;5075903;28;19916;-59
2022/10/26 13:02:42;;;;;;;;;;;19.70;61.40;;;;;;5058574;28;20288;-59
2022/10/26 13:05:26;;;;;;;;;;;19.60;61.20;;;;;;5075793;28;19909;-58
2022/10/26 13:07:51;;;;;;;;;;;19.70;61.40;;;;;;5078219;28;19920;-59
2022/10/26 13:10:18;;;;;;;;;;;19.70;61.50;;;;;;5077403;28;20264;-59
2022/10/26 13:12:50;;;;;;;;;;;19.70;61.40;;;;;;5078078;28;19923;-59
2022/10/26 13:15:20;;;;;;;;;;;19.70;61.30;;;;;;5077780;28;20299;-59
2022/10/26 13:18:12;;;;;;;;;;;19.80;61.50;;;;;;5096691;28;19931;-59
2022/10/26 13:20:50;;;;;;;;;;;19.70;61.50;;;;;;5092660;28;20002;-59
2022/10/26 13:23:15;;;;;;;;;;;19.70;61.50;;;;;;5077953;28;19919;-59
2022/10/26 13:25:41;;;;;;;;;;;19.70;61.50;;;;;;5091568;28;19908;-59
2022/10/26 13:28:26;;;;;;;;;;;19.70;62.40;;;;;;5075627;28;19909;-58
2022/10/26 13:30:51;;;;;;;;;;;19.70;61.60;;;;;;5075317;28;19934;-59
2022/10/26 13:33:21;;;;;;;;;;;19.70;61.60;;;;;;5057692;28;19908;-59
2022/10/26 13:35:47;;;;;;;;;;;19.70;61.60;;;;;;5057339;28;20406;-59
2022/10/26 13:38:14;;;;;;;;;;;19.70;61.70;;;;;;5080698;28;19912;-59
2022/10/26 13:40:39;;;;;;;;;;;19.70;61.70;;;;;;5076424;28;19912;-59
2022/10/26 13:43:05;;;;;;;;;;;19.70;61.70;;;;;;5077451;28;20386;-59
2022/10/26 13:45:33;;;;;;;;;;;19.70;61.80;;;;;;5095553;28;20002;-59
2022/10/26 13:48:12;;;;;;;;;;;19.70;61.90;;;;;;5095721;28;19909;-59
2022/10/26 13:50:47;;;;;;;;;;;19.70;61.90;;;;;;5095325;28;19908;-58
2022/10/26 13:53:19;;;;;;;;;;;19.70;61.90;;;;;;5076702;28;20361;-58
2022/10/26 13:55:47;;;;;;;;;;;19.70;61.90;;;;;;5094612;28;19936;-59
2022/10/26 13:58:24;;;;;;;;;;;19.70;62.10;;;;;;5095352;28;19959;-59
2022/10/26 14:01:03;;;;;;;;;;;19.70;62.10;;;;;;5077081;28;20367;-59
2022/10/26 14:03:28;;;;;;;;;;;19.70;62.00;;;;;;5077205;28;20097;-59
2022/10/26 14:05:54;;;;;;;;;;;19.70;62.90;;;;;;5095052;28;20037;-58
2022/10/26 14:08:19;;;;;;;;;;;19.70;62.20;;;;;;5077483;28;19912;-59
2022/10/26 14:10:46;;;;;;;;;;;19.70;62.30;;;;;;5094217;28;20003;-59
2022/10/26 14:13:12;;;;;;;;;;;19.70;62.30;;;;;;5095108;28;19938;-59
2022/10/26 14:15:38;;;;;;;;;;;19.70;62.30;;;;;;5068412;28;19909;-59
2022/10/26 14:18:04;;;;;;;;;;;19.60;62.30;;;;;;5056924;28;19909;-59
2022/10/26 14:20:29;;;;;;;;;;;19.60;62.30;;;;;;5074587;28;19962;-59